Terminal Aerodrome Forecast
Issued by NWS

Home | Current Version | Previous Version | Text Only | Print | Product List | Glossary On
Versions: 1 2 3 4 5 6 7 8 9 10 11 12 13 14 15 16 17 18 19 20 21 22 23 24 25 26 27 28 29 30 31 32 33 34 35 36 37 38 39
000
FTUS42 KGSP 232212 AAB
TAFHKY
TAF AMD
KHKY 232212Z 2322/2418 05012KT 3SM -SHRA BR OVC006
     FM240000 05011KT 2SM BR OVC005
      TEMPO 2400/2404 1SM SHRA BR OVC003
     FM240400 05013KT 1 1/2SM SHRA BR OVC003
     FM241200 05011KT 5SM -SHRA BR OVC003=

USA.gov is the U.S. government's official web portal to all federal, state and local government web resources and services.